createdAt,value
2023-02-09T00:00:02.790Z,6.20
2023-02-09T00:02:29.810Z,8.07
2023-02-09T00:04:56.552Z,8.88
2023-02-09T00:07:23.295Z,8.52
2023-02-09T00:09:51.605Z,8.38
2023-02-09T00:12:38.057Z,7.65
2023-02-09T00:15:06.353Z,8.32
2023-02-09T00:17:37.273Z,7.75
2023-02-09T00:20:05.953Z,8.05
2023-02-09T00:22:33.394Z,7.72
2023-02-09T00:25:00.260Z,7.38
2023-02-09T00:27:27.153Z,7.55
2023-02-09T00:29:54.011Z,7.32
2023-02-09T00:32:20.792Z,7.63
2023-02-09T00:34:47.687Z,8.43
2023-02-09T00:37:14.467Z,8.15
2023-02-09T00:39:41.233Z,8.10
2023-02-09T00:42:08.091Z,7.63
2023-02-09T00:44:36.263Z,8.48
2023-02-09T00:47:03.870Z,7.57
2023-02-09T00:49:31.169Z,7.68
2023-02-09T00:51:58.043Z,7.10
2023-02-09T00:54:24.959Z,8.43
2023-02-09T00:56:51.795Z,7.88
2023-02-09T00:59:18.565Z,8.05
2023-02-09T01:01:45.352Z,8.02
2023-02-09T01:04:13.296Z,7.40
2023-02-09T01:06:40.199Z,7.80
2023-02-09T01:09:06.957Z,7.57
2023-02-09T01:11:33.881Z,7.43
2023-02-09T01:14:01.120Z,7.15
2023-02-09T01:16:31.566Z,7.20
2023-02-09T01:19:03.006Z,7.15
2023-02-09T01:21:30.501Z,6.65
2023-02-09T01:23:57.725Z,6.63
2023-02-09T01:26:24.595Z,7.03
2023-02-09T01:28:53.225Z,7.55
2023-02-09T01:31:28.910Z,8.73
2023-02-09T01:33:57.892Z,7.93
2023-02-09T01:36:25.277Z,7.90
2023-02-09T01:38:55.607Z,7.90
2023-02-09T01:41:23.002Z,8.10
2023-02-09T01:43:50.807Z,7.68
2023-02-09T01:46:17.675Z,7.65
2023-02-09T01:48:44.633Z,7.35
2023-02-09T01:51:11.910Z,7.35
2023-02-09T01:53:39.041Z,7.53
2023-02-09T01:56:10.649Z,7.43
2023-02-09T01:58:38.212Z,7.28
2023-02-09T02:01:05.235Z,9.18
2023-02-09T02:03:32.717Z,8.57
2023-02-09T02:06:06.620Z,8.30
2023-02-09T02:09:04.737Z,7.30
2023-02-09T02:11:32.980Z,7.55
2023-02-09T02:13:59.904Z,7.47
2023-02-09T02:16:29.730Z,6.57
2023-02-09T02:19:02.402Z,7.20
2023-02-09T02:22:05.753Z,7.50
2023-02-09T02:25:02.088Z,8.32
2023-02-09T02:27:39.348Z,8.43
2023-02-09T02:30:19.724Z,8.43
2023-02-09T02:32:58.342Z,7.65
2023-02-09T02:35:43.797Z,6.95
2023-02-09T02:38:31.504Z,7.03
2023-02-09T02:41:19.458Z,7.75
2023-02-09T02:44:06.649Z,8.77
2023-02-09T02:46:44.751Z,9.10
2023-02-09T02:49:33.057Z,7.55
2023-02-09T02:52:04.105Z,8.65
2023-02-09T02:54:47.638Z,9.52
2023-02-09T02:57:18.952Z,8.85
2023-02-09T02:59:54.377Z,9.25
2023-02-09T03:02:30.983Z,7.93
2023-02-09T03:05:01.608Z,9.05
2023-02-09T03:07:28.442Z,9.02
2023-02-09T03:09:57.362Z,8.60
2023-02-09T03:12:33.463Z,9.05
2023-02-09T03:15:11.974Z,9.15
2023-02-09T03:18:09.720Z,8.63
2023-02-09T03:20:47.102Z,8.43
2023-02-09T03:23:26.712Z,8.00
2023-02-09T03:25:56.470Z,7.47
2023-02-09T03:28:28.845Z,9.57
2023-02-09T03:30:57.644Z,7.97
2023-02-09T03:33:28.504Z,8.23
2023-02-09T03:35:57.443Z,9.07
2023-02-09T03:38:24.824Z,9.57
2023-02-09T03:40:51.617Z,8.55
2023-02-09T03:43:18.428Z,10.20
2023-02-09T03:45:45.360Z,8.15
2023-02-09T03:48:12.316Z,9.73
2023-02-09T03:50:39.092Z,9.82
2023-02-09T03:53:07.054Z,9.07
2023-02-09T03:55:34.062Z,8.30
2023-02-09T03:58:00.900Z,10.68
2023-02-09T04:00:27.882Z,8.88
2023-02-09T04:02:54.746Z,9.77
2023-02-09T04:05:22.852Z,8.80
2023-02-09T04:07:49.835Z,10.20
2023-02-09T04:10:16.665Z,9.27
2023-02-09T04:12:43.479Z,9.93
2023-02-09T04:15:10.428Z,10.27
2023-02-09T04:17:37.260Z,11.02
2023-02-09T04:20:04.320Z,10.35
2023-02-09T04:22:31.104Z,9.35
2023-02-09T04:24:57.934Z,9.65
2023-02-09T04:27:24.731Z,10.15
2023-02-09T04:29:51.514Z,10.38
2023-02-09T04:32:18.321Z,10.38
2023-02-09T04:34:45.227Z,11.85
2023-02-09T04:37:12.007Z,10.50
2023-02-09T04:39:38.810Z,9.60
2023-02-09T04:42:05.623Z,10.30
2023-02-09T04:44:32.412Z,10.45
2023-02-09T04:46:59.147Z,9.75
2023-02-09T04:49:25.918Z,9.55
2023-02-09T04:51:52.662Z,9.57
2023-02-09T04:54:19.410Z,10.15
2023-02-09T04:56:46.126Z,9.32
2023-02-09T04:59:31.423Z,11.30
2023-02-09T05:01:58.208Z,10.70
2023-02-09T05:04:25.009Z,11.25
2023-02-09T05:06:51.732Z,10.68
2023-02-09T05:09:18.523Z,12.23
2023-02-09T05:11:45.299Z,10.35
2023-02-09T05:14:12.067Z,11.70
2023-02-09T05:16:39.439Z,12.80
2023-02-09T05:19:06.465Z,13.75
2023-02-09T05:21:33.286Z,12.50
2023-02-09T05:24:00.134Z,15.40
2023-02-09T05:26:26.968Z,14.73
2023-02-09T05:28:53.756Z,15.05
2023-02-09T05:31:20.699Z,13.77
2023-02-09T05:33:47.534Z,13.82
2023-02-09T05:36:14.345Z,14.57
2023-02-09T05:38:41.408Z,15.73
2023-02-09T05:41:10.748Z,14.57
2023-02-09T05:43:38.067Z,12.65
2023-02-09T05:46:08.091Z,15.48
2023-02-09T05:48:35.257Z,18.08
2023-02-09T05:51:02.005Z,14.35
2023-02-09T05:53:28.780Z,15.45
2023-02-09T05:55:55.576Z,15.65
2023-02-09T05:58:22.364Z,16.27
2023-02-09T06:00:49.095Z,14.77
2023-02-09T06:03:16.028Z,15.95
2023-02-09T06:05:45.906Z,16.70
2023-02-09T06:08:12.701Z,15.20
2023-02-09T06:10:39.560Z,15.93
2023-02-09T06:13:06.506Z,17.33
2023-02-09T06:15:33.298Z,15.25
2023-02-09T06:18:00.085Z,16.10
2023-02-09T06:20:26.840Z,16.02
2023-02-09T06:22:53.621Z,19.38
2023-02-09T06:25:20.379Z,17.70
2023-02-09T06:27:47.211Z,18.58
2023-02-09T06:30:14.152Z,19.05
2023-02-09T06:32:40.983Z,18.35
2023-02-09T06:35:07.926Z,18.98
2023-02-09T06:37:34.707Z,20.85
2023-02-09T06:40:01.509Z,19.45
2023-02-09T06:42:43.992Z,19.02
2023-02-09T06:45:13.522Z,18.70
2023-02-09T06:47:45.067Z,17.48
2023-02-09T06:50:13.435Z,18.85
2023-02-09T06:52:40.482Z,17.92
2023-02-09T06:55:07.809Z,18.30
2023-02-09T06:57:35.216Z,19.45
2023-02-09T07:00:04.216Z,17.33
2023-02-09T07:02:31.105Z,19.98
2023-02-09T07:04:58.258Z,17.58
2023-02-09T07:07:25.614Z,18.52
2023-02-09T07:09:52.722Z,17.70
2023-02-09T07:12:19.488Z,19.10
2023-02-09T07:14:46.547Z,18.27
2023-02-09T07:17:13.336Z,17.42
2023-02-09T07:19:40.081Z,20.02
2023-02-09T07:22:06.946Z,18.80
2023-02-09T07:24:33.707Z,21.25
2023-02-09T07:27:00.488Z,19.98
2023-02-09T07:29:27.353Z,19.88
2023-02-09T07:31:54.232Z,20.33
2023-02-09T07:34:20.979Z,20.23
2023-02-09T07:36:47.845Z,20.42
2023-02-09T07:39:15.334Z,19.20
2023-02-09T07:41:42.411Z,19.58
2023-02-09T07:44:10.484Z,19.45
2023-02-09T07:46:37.618Z,19.08
2023-02-09T07:49:04.697Z,20.00
2023-02-09T07:51:33.450Z,19.73
2023-02-09T07:54:01.249Z,21.17
2023-02-09T07:56:28.788Z,17.73
2023-02-09T07:58:57.129Z,18.10
2023-02-09T08:01:25.287Z,19.48
2023-02-09T08:03:52.172Z,22.02
2023-02-09T08:06:41.895Z,20.65
2023-02-09T08:09:10.935Z,21.63
2023-02-09T08:11:46.496Z,19.48
2023-02-09T08:14:24.307Z,20.25
2023-02-09T08:17:14.178Z,19.52
2023-02-09T08:19:41.870Z,18.35
2023-02-09T08:22:08.655Z,19.83
2023-02-09T08:24:35.611Z,19.40
2023-02-09T08:27:02.463Z,18.48
2023-02-09T08:29:29.232Z,17.85
2023-02-09T08:31:55.982Z,16.33
2023-02-09T08:34:22.760Z,17.50
2023-02-09T08:36:50.165Z,16.70
2023-02-09T08:39:17.163Z,17.90
2023-02-09T08:41:46.110Z,18.80
2023-02-09T08:44:13.176Z,17.70
2023-02-09T08:46:40.121Z,16.00
2023-02-09T08:49:06.984Z,16.45
2023-02-09T08:51:33.773Z,15.65
2023-02-09T08:54:00.544Z,15.60
2023-02-09T08:56:27.375Z,15.50
2023-02-09T08:58:54.211Z,14.55
2023-02-09T09:01:21.033Z,13.45
2023-02-09T09:03:48.078Z,13.40
2023-02-09T09:06:14.886Z,13.60
2023-02-09T09:08:41.784Z,13.52
2023-02-09T09:11:13.013Z,12.82
2023-02-09T09:13:41.381Z,13.23
2023-02-09T09:16:13.825Z,12.30
2023-02-09T09:18:40.712Z,12.00
2023-02-09T09:21:07.466Z,11.63
2023-02-09T09:23:34.260Z,10.57
2023-02-09T09:26:04.606Z,11.40
2023-02-09T09:28:31.997Z,11.93
2023-02-09T09:31:02.139Z,10.95
2023-02-09T09:33:28.965Z,12.40
2023-02-09T09:35:59.089Z,13.32
2023-02-09T09:38:25.948Z,11.15
2023-02-09T09:40:53.201Z,14.07
2023-02-09T09:43:35.086Z,12.02
2023-02-09T09:46:03.626Z,10.35
2023-02-09T09:48:46.033Z,10.25
2023-02-09T09:54:01.813Z,10.35
2023-02-09T09:56:31.385Z,9.63
2023-02-09T09:58:59.768Z,12.15
2023-02-09T10:01:30.482Z,11.15
2023-02-09T10:04:00.930Z,11.38
2023-02-09T10:06:32.685Z,11.65
2023-02-09T10:09:26.092Z,11.48
2023-02-09T10:12:16.583Z,11.55
2023-02-09T10:14:43.389Z,12.15
2023-02-09T10:17:10.665Z,13.10
2023-02-09T10:19:37.495Z,12.98
2023-02-09T10:22:05.344Z,11.95
2023-02-09T10:24:34.176Z,13.23
2023-02-09T10:27:24.425Z,11.40
2023-02-09T10:29:51.264Z,12.15
2023-02-09T10:32:38.807Z,11.55
2023-02-09T10:35:27.344Z,12.57
2023-02-09T10:38:02.011Z,13.15
2023-02-09T10:40:32.658Z,12.18
2023-02-09T10:43:07.047Z,11.43
2023-02-09T10:45:46.222Z,10.15
2023-02-09T10:48:13.144Z,10.27
2023-02-09T10:50:58.346Z,11.57
2023-02-09T10:53:30.217Z,11.30
2023-02-09T10:56:35.216Z,10.13
2023-02-09T10:59:19.932Z,10.35
2023-02-09T11:02:02.398Z,11.27
2023-02-09T11:04:41.044Z,10.73
2023-02-09T11:07:14.897Z,10.82
2023-02-09T11:09:51.906Z,11.32
2023-02-09T11:12:22.805Z,11.82
2023-02-09T11:15:12.581Z,12.48
2023-02-09T11:17:45.671Z,12.82
2023-02-09T11:20:36.487Z,13.55
2023-02-09T11:23:13.915Z,13.63
2023-02-09T11:25:49.721Z,12.20
2023-02-09T11:29:05.892Z,14.25
2023-02-09T11:32:03.271Z,13.18
2023-02-09T11:34:44.642Z,15.93
2023-02-09T11:37:30.368Z,14.82
2023-02-09T11:40:22.899Z,15.15
2023-02-09T11:45:47.002Z,14.38
2023-02-09T11:48:40.976Z,12.45
2023-02-09T11:51:16.602Z,15.50
2023-02-09T11:53:59.072Z,13.35
2023-02-09T11:56:27.739Z,14.10
2023-02-09T11:58:57.318Z,12.48
2023-02-09T12:01:35.749Z,14.25
2023-02-09T12:04:40.237Z,16.08
2023-02-09T12:07:33.314Z,14.88
2023-02-09T12:10:25.152Z,14.60
2023-02-09T12:13:02.875Z,14.48
2023-02-09T12:15:39.354Z,13.75
2023-02-09T12:18:12.489Z,14.40
2023-02-09T12:20:52.945Z,14.57
2023-02-09T12:23:34.817Z,13.73
2023-02-09T12:26:16.916Z,13.02
2023-02-09T12:29:03.437Z,13.27
2023-02-09T12:31:51.277Z,14.50
2023-02-09T12:34:43.097Z,14.10
2023-02-09T12:37:16.974Z,13.57
2023-02-09T12:40:11.569Z,14.27
2023-02-09T12:42:42.563Z,13.82
2023-02-09T12:45:31.370Z,13.65
2023-02-09T12:48:01.106Z,15.23
2023-02-09T12:50:53.048Z,13.32
2023-02-09T12:53:22.936Z,13.75
2023-02-09T12:56:25.067Z,13.48
2023-02-09T12:58:51.765Z,12.88
2023-02-09T13:01:18.727Z,12.80
2023-02-09T13:04:03.671Z,13.40
2023-02-09T13:06:36.930Z,13.98
2023-02-09T13:09:09.244Z,14.88
2023-02-09T13:11:50.980Z,12.88
2023-02-09T13:14:19.884Z,10.00
2023-02-09T13:17:15.841Z,14.00
2023-02-09T13:20:17.710Z,13.23
2023-02-09T13:22:57.693Z,13.20
2023-02-09T13:25:33.469Z,13.23
2023-02-09T13:28:22.711Z,14.23
2023-02-09T13:30:49.806Z,14.02
2023-02-09T13:33:31.644Z,13.38
2023-02-09T13:36:25.055Z,12.85
2023-02-09T13:38:52.712Z,13.93
2023-02-09T13:41:27.249Z,14.45
2023-02-09T13:43:54.037Z,13.40
2023-02-09T13:46:28.489Z,13.60
2023-02-09T13:49:09.163Z,15.38
2023-02-09T13:51:35.909Z,13.70
2023-02-09T13:54:03.511Z,13.68
2023-02-09T13:56:32.432Z,14.32
2023-02-09T13:59:00.333Z,14.27
2023-02-09T14:01:35.774Z,15.43
2023-02-09T14:04:15.492Z,15.18
2023-02-09T14:06:47.671Z,13.18
2023-02-09T14:11:51.720Z,12.80
2023-02-09T14:14:53.628Z,13.40
2023-02-09T14:17:25.884Z,14.10
2023-02-09T14:19:55.009Z,13.55
2023-02-09T14:22:37.540Z,15.50
2023-02-09T14:25:13.498Z,15.80
2023-02-09T14:27:45.592Z,14.60
2023-02-09T14:30:18.806Z,15.32
2023-02-09T14:32:48.357Z,13.50
2023-02-09T14:35:29.062Z,14.43
2023-02-09T14:37:59.578Z,14.32
2023-02-09T14:40:30.935Z,14.90
2023-02-09T14:43:03.744Z,13.20
2023-02-09T14:45:43.540Z,14.45
2023-02-09T14:48:19.141Z,13.98
2023-02-09T14:50:47.251Z,14.60
2023-02-09T14:53:15.916Z,13.60
2023-02-09T14:55:44.488Z,14.80
2023-02-09T14:58:12.826Z,14.65
2023-02-09T15:00:39.570Z,14.43
2023-02-09T15:03:06.366Z,14.75
2023-02-09T15:05:33.211Z,14.02
2023-02-09T15:08:05.748Z,14.32
2023-02-09T15:10:38.722Z,15.05
2023-02-09T15:13:06.010Z,13.63
2023-02-09T15:15:37.501Z,14.57
2023-02-09T15:18:04.538Z,15.68
2023-02-09T15:20:32.461Z,15.05
2023-02-09T15:23:00.784Z,17.15
2023-02-09T15:25:29.334Z,16.05
2023-02-09T15:28:00.659Z,18.52
2023-02-09T15:30:34.314Z,15.73
2023-02-09T15:33:02.084Z,16.60
2023-02-09T15:35:29.816Z,16.48
2023-02-09T15:37:59.732Z,16.73
2023-02-09T15:40:47.053Z,17.83
2023-02-09T15:43:38.772Z,15.80
2023-02-09T15:46:09.436Z,18.70
2023-02-09T15:48:36.979Z,18.55
2023-02-09T15:51:04.061Z,19.98
2023-02-09T15:53:32.069Z,19.05
2023-02-09T15:56:02.532Z,19.83
2023-02-09T15:58:35.872Z,23.40
2023-02-09T16:01:03.742Z,20.50
2023-02-09T16:03:31.931Z,21.00
2023-02-09T16:06:12.934Z,22.42
2023-02-09T16:08:39.796Z,21.85
2023-02-09T16:11:12.027Z,23.00
2023-02-09T16:16:16.578Z,19.50
2023-02-09T16:18:44.252Z,21.20
2023-02-09T16:21:23.872Z,23.02
2023-02-09T16:23:52.521Z,22.13
2023-02-09T16:26:19.932Z,20.25
2023-02-09T16:28:51.703Z,21.15
2023-02-09T16:31:19.313Z,21.88
2023-02-09T16:33:47.017Z,21.98
2023-02-09T16:36:16.191Z,21.13
2023-02-09T16:38:43.664Z,22.83
2023-02-09T16:41:34.483Z,21.73
2023-02-09T16:44:02.616Z,20.55
2023-02-09T16:46:31.518Z,21.67
2023-02-09T16:49:00.915Z,23.27
2023-02-09T16:51:27.810Z,22.65
2023-02-09T16:53:55.193Z,23.08
2023-02-09T16:56:22.067Z,25.63
2023-02-09T16:58:49.171Z,24.85
2023-02-09T17:01:19.140Z,25.42
2023-02-09T17:03:50.318Z,26.42
2023-02-09T17:06:20.272Z,28.40
2023-02-09T17:08:47.906Z,27.65
2023-02-09T17:11:23.002Z,26.73
2023-02-09T17:13:50.114Z,26.42
2023-02-09T17:16:19.091Z,28.50
2023-02-09T17:18:49.150Z,26.63
2023-02-09T17:21:20.613Z,27.95
2023-02-09T17:23:47.444Z,30.48
2023-02-09T17:26:14.503Z,29.08
2023-02-09T17:28:43.133Z,28.85
2023-02-09T17:31:26.791Z,29.67
2023-02-09T17:33:59.615Z,29.65
2023-02-09T17:36:28.844Z,29.13
2023-02-09T17:39:00.515Z,29.98
2023-02-09T17:41:43.185Z,27.53
2023-02-09T17:44:35.412Z,28.50
2023-02-09T17:49:30.477Z,28.77
2023-02-09T17:51:57.304Z,32.47
2023-02-09T17:54:24.061Z,32.22
2023-02-09T17:56:50.881Z,31.42
2023-02-09T17:59:20.397Z,32.67
2023-02-09T18:01:50.177Z,31.45
2023-02-09T18:04:23.358Z,32.15
2023-02-09T18:06:50.205Z,32.20
2023-02-09T18:09:17.181Z,31.90
2023-02-09T18:11:52.520Z,32.83
2023-02-09T18:14:20.903Z,36.78
2023-02-09T18:16:48.461Z,34.58
2023-02-09T18:19:16.110Z,36.63
2023-02-09T18:21:52.848Z,33.10
2023-02-09T18:24:21.700Z,35.88
2023-02-09T18:26:50.030Z,36.53
2023-02-09T18:29:17.997Z,38.85
2023-02-09T18:31:44.877Z,36.72
2023-02-09T18:34:11.651Z,37.35
2023-02-09T18:36:38.477Z,36.28
2023-02-09T18:39:05.228Z,34.15
2023-02-09T18:41:32.071Z,35.05
2023-02-09T18:43:59.001Z,31.75
2023-02-09T18:46:27.162Z,32.30
2023-02-09T18:48:54.905Z,33.08
2023-02-09T18:51:22.053Z,33.63
2023-02-09T18:53:50.314Z,33.28
2023-02-09T18:56:22.335Z,34.28
2023-02-09T18:58:52.859Z,32.67
2023-02-09T19:01:22.060Z,34.53
2023-02-09T19:03:53.295Z,32.58
2023-02-09T19:06:21.387Z,25.25
2023-02-09T19:08:50.433Z,33.17
2023-02-09T19:11:20.799Z,34.75
2023-02-09T19:14:07.910Z,34.80
2023-02-09T19:16:38.176Z,45.30
2023-02-09T19:19:05.408Z,38.33
2023-02-09T19:21:32.554Z,34.33
2023-02-09T19:23:59.341Z,30.83
2023-02-09T19:26:26.175Z,29.45
2023-02-09T19:28:53.120Z,29.08
2023-02-09T19:31:19.940Z,30.27
2023-02-09T19:33:46.784Z,29.52
2023-02-09T19:36:13.556Z,29.10
2023-02-09T19:38:40.451Z,28.73
2023-02-09T19:41:12.340Z,29.27
2023-02-09T19:43:40.614Z,28.77
2023-02-09T19:46:10.453Z,27.58
2023-02-09T19:48:41.148Z,28.15
2023-02-09T19:51:08.635Z,28.40
2023-02-09T19:53:35.637Z,29.73
2023-02-09T19:56:02.718Z,27.48
2023-02-09T19:58:29.765Z,29.08
2023-02-09T20:00:56.681Z,29.05
2023-02-09T20:03:24.306Z,30.50
2023-02-09T20:05:51.546Z,26.70
2023-02-09T20:08:19.640Z,29.23
2023-02-09T20:10:47.158Z,29.60
2023-02-09T20:13:15.761Z,28.45
2023-02-09T20:15:43.922Z,27.50
2023-02-09T20:18:13.403Z,28.42
2023-02-09T20:20:43.289Z,27.98
2023-02-09T20:23:10.594Z,29.42
2023-02-09T20:25:40.659Z,29.70
2023-02-09T20:28:07.596Z,28.17
2023-02-09T20:30:34.613Z,30.08
2023-02-09T20:33:01.500Z,29.48
2023-02-09T20:35:28.348Z,30.98
2023-02-09T20:37:55.165Z,30.15
2023-02-09T20:40:22.753Z,29.50
2023-02-09T20:43:08.154Z,32.60
2023-02-09T20:45:53.531Z,30.75
2023-02-09T20:48:20.444Z,30.15
2023-02-09T20:50:47.609Z,29.27
2023-02-09T20:53:14.569Z,27.95
2023-02-09T20:55:42.677Z,30.58
2023-02-09T20:58:11.794Z,31.42
2023-02-09T21:00:39.089Z,29.85
2023-02-09T21:03:07.384Z,31.30
2023-02-09T21:05:35.326Z,30.02
2023-02-09T21:08:04.478Z,31.33
2023-02-09T21:10:35.823Z,35.28
2023-02-09T21:13:04.056Z,32.83
2023-02-09T21:15:30.870Z,31.63
2023-02-09T21:17:57.778Z,34.47
2023-02-09T21:20:24.803Z,31.20
2023-02-09T21:22:51.697Z,30.38
2023-02-09T21:25:19.388Z,29.30
2023-02-09T21:27:46.234Z,28.38
2023-02-09T21:30:13.731Z,30.75
2023-02-09T21:32:40.489Z,30.58
2023-02-09T21:35:10.281Z,34.28
2023-02-09T21:37:38.898Z,36.88
2023-02-09T21:40:06.716Z,37.17
2023-02-09T21:42:35.570Z,36.78
2023-02-09T21:45:03.188Z,37.97
2023-02-09T21:47:33.080Z,38.58
2023-02-09T21:50:00.312Z,40.45
2023-02-09T21:52:27.914Z,37.97
2023-02-09T21:54:54.734Z,36.80
2023-02-09T21:57:22.737Z,37.95
2023-02-09T21:59:49.676Z,39.33
2023-02-09T22:02:18.095Z,38.58
2023-02-09T22:04:46.608Z,38.67
2023-02-09T22:07:14.579Z,39.30
2023-02-09T22:09:41.540Z,38.22
2023-02-09T22:12:08.683Z,35.45
2023-02-09T22:14:35.665Z,36.13
2023-02-09T22:17:02.576Z,35.78
2023-02-09T22:19:29.414Z,36.50
2023-02-09T22:22:00.353Z,34.10
2023-02-09T22:24:27.548Z,36.65
2023-02-09T22:26:54.378Z,33.40
2023-02-09T22:29:21.207Z,33.40
2023-02-09T22:31:48.173Z,32.70
2023-02-09T22:34:15.551Z,35.10
2023-02-09T22:36:42.319Z,36.17
2023-02-09T22:39:09.372Z,33.10
2023-02-09T22:41:36.254Z,33.28
2023-02-09T22:44:05.411Z,33.38
2023-02-09T22:46:35.462Z,34.15
2023-02-09T22:49:07.522Z,30.95
2023-02-09T22:51:36.143Z,31.05
2023-02-09T22:54:04.607Z,33.08
2023-02-09T22:56:32.397Z,31.38
2023-02-09T22:59:00.678Z,32.22
2023-02-09T23:01:29.267Z,30.15
2023-02-09T23:03:56.817Z,30.40
2023-02-09T23:06:27.014Z,32.92
2023-02-09T23:08:59.440Z,31.02
2023-02-09T23:11:27.547Z,30.48
2023-02-09T23:14:08.596Z,31.73
2023-02-09T23:16:36.689Z,30.98
2023-02-09T23:19:06.918Z,32.53
2023-02-09T23:21:44.982Z,31.70
2023-02-09T23:24:13.458Z,31.15
2023-02-09T23:26:40.522Z,30.35
2023-02-09T23:29:09.535Z,29.98
2023-02-09T23:31:36.964Z,29.77
2023-02-09T23:34:03.900Z,29.98
2023-02-09T23:36:32.685Z,29.42
2023-02-09T23:39:05.459Z,26.75
2023-02-09T23:41:32.525Z,28.00
2023-02-09T23:43:59.779Z,27.33
2023-02-09T23:46:28.845Z,31.00
2023-02-09T23:48:56.394Z,30.65
2023-02-09T23:51:31.888Z,29.85
2023-02-09T23:54:01.176Z,25.83
2023-02-09T23:56:29.901Z,25.02
2023-02-09T23:58:56.714Z,24.52
